createdAt,value
2019-02-14T00:01:14.197Z,2.60
2019-02-14T00:03:41.783Z,3.17
2019-02-14T00:06:09.252Z,3.27
2019-02-14T00:08:36.734Z,2.83
2019-02-14T00:11:04.525Z,2.60
2019-02-14T00:13:31.939Z,4.70
2019-02-14T00:16:02.401Z,3.20
2019-02-14T00:18:29.800Z,4.80
2019-02-14T00:20:57.321Z,3.17
2019-02-14T00:23:25.398Z,2.93
2019-02-14T00:25:52.815Z,2.77
2019-02-14T00:28:20.553Z,3.00
2019-02-14T00:30:47.969Z,4.57
2019-02-14T00:33:15.417Z,3.40
2019-02-14T00:35:42.994Z,3.13
2019-02-14T00:38:11.016Z,2.90
2019-02-14T00:40:38.844Z,3.00
2019-02-14T00:43:06.644Z,3.03
2019-02-14T00:45:34.788Z,2.97
2019-02-14T00:48:02.393Z,3.00
2019-02-14T00:50:29.899Z,3.30
2019-02-14T00:52:57.281Z,9.23
2019-02-14T00:55:25.094Z,3.00
2019-02-14T00:57:52.474Z,3.50
2019-02-14T01:00:19.964Z,2.90
2019-02-14T01:02:47.737Z,3.23
2019-02-14T01:05:16.488Z,3.53
2019-02-14T01:07:48.176Z,3.20
2019-02-14T01:10:15.699Z,3.83
2019-02-14T01:12:43.230Z,3.87
2019-02-14T01:15:10.803Z,3.47
2019-02-14T01:17:38.592Z,3.50
2019-02-14T01:20:06.232Z,3.17
2019-02-14T01:22:34.714Z,3.63
2019-02-14T01:25:02.133Z,3.30
2019-02-14T01:27:29.664Z,2.80
2019-02-14T01:29:57.463Z,3.23
2019-02-14T01:32:25.425Z,3.70
2019-02-14T01:34:53.550Z,3.37
2019-02-14T01:37:21.329Z,3.00
2019-02-14T01:39:48.875Z,3.30
2019-02-14T01:42:16.401Z,3.20
2019-02-14T01:44:44.749Z,3.90
2019-02-14T01:47:12.171Z,3.83
2019-02-14T01:49:39.594Z,3.57
2019-02-14T01:52:07.110Z,3.73
2019-02-14T01:54:34.495Z,3.57
2019-02-14T01:57:02.036Z,3.37
2019-02-14T01:59:29.629Z,3.27
2019-02-14T02:01:57.489Z,3.07
2019-02-14T02:04:25.112Z,3.40
2019-02-14T02:06:52.656Z,3.43
2019-02-14T02:09:20.457Z,3.63
2019-02-14T02:11:48.179Z,3.57
2019-02-14T02:14:16.284Z,3.90
2019-02-14T02:16:43.845Z,3.73
2019-02-14T02:19:11.656Z,4.17
2019-02-14T02:21:39.688Z,3.60
2019-02-14T02:24:07.301Z,3.53
2019-02-14T02:26:35.357Z,4.00
2019-02-14T02:29:03.442Z,4.20
2019-02-14T02:31:31.189Z,4.30
2019-02-14T02:33:58.756Z,4.60
2019-02-14T02:36:26.544Z,6.30
2019-02-14T02:38:54.289Z,6.07
2019-02-14T02:41:22.333Z,3.80
2019-02-14T02:43:50.085Z,3.70
2019-02-14T02:46:17.844Z,3.53
2019-02-14T02:48:45.337Z,3.70
2019-02-14T02:51:12.740Z,3.70
2019-02-14T02:53:40.335Z,4.63
2019-02-14T02:56:07.857Z,3.73
2019-02-14T02:58:35.616Z,3.93
2019-02-14T03:01:03.290Z,3.63
2019-02-14T03:03:31.001Z,3.40
2019-02-14T03:05:58.861Z,3.50
2019-02-14T03:08:26.644Z,3.70
2019-02-14T03:16:17.622Z,3.90
2019-02-14T03:18:45.111Z,5.03
2019-02-14T03:21:12.625Z,5.47
2019-02-14T03:23:39.977Z,3.80
2019-02-14T03:26:07.656Z,4.57
2019-02-14T03:28:35.330Z,6.37
2019-02-14T03:31:02.745Z,4.77
2019-02-14T03:33:30.197Z,3.63
2019-02-14T03:35:57.884Z,4.47
2019-02-14T03:38:25.346Z,4.77
2019-02-14T03:40:53.268Z,4.23
2019-02-14T03:43:20.736Z,3.10
2019-02-14T03:45:48.247Z,3.90
2019-02-14T03:48:15.918Z,3.50
2019-02-14T03:50:43.334Z,3.67
2019-02-14T03:53:10.996Z,3.73
2019-02-14T03:55:38.441Z,3.93
2019-02-14T03:58:05.895Z,4.00
2019-02-14T04:00:33.683Z,3.90
2019-02-14T04:03:01.049Z,4.07
2019-02-14T04:05:28.580Z,4.03
2019-02-14T04:07:55.927Z,4.00
2019-02-14T04:10:23.463Z,4.03
2019-02-14T04:12:51.077Z,3.63
2019-02-14T04:15:18.462Z,6.90
2019-02-14T04:17:46.263Z,4.10
2019-02-14T04:20:13.765Z,6.43
2019-02-14T04:22:41.156Z,4.07
2019-02-14T04:25:08.688Z,4.03
2019-02-14T04:27:36.180Z,4.43
2019-02-14T04:30:04.523Z,4.37
2019-02-14T04:32:32.743Z,5.83
2019-02-14T04:35:00.224Z,3.70
2019-02-14T04:37:27.729Z,3.80
2019-02-14T04:39:55.189Z,3.90
2019-02-14T04:42:22.702Z,4.37
2019-02-14T04:44:50.083Z,5.43
2019-02-14T04:47:17.619Z,6.20
2019-02-14T04:49:45.241Z,4.40
2019-02-14T04:52:12.892Z,4.40
2019-02-14T04:54:40.268Z,4.43
2019-02-14T04:57:07.774Z,7.77
2019-02-14T04:59:35.263Z,4.43
2019-02-14T05:02:02.761Z,3.70
2019-02-14T05:04:30.235Z,4.07
2019-02-14T05:06:57.731Z,4.87
2019-02-14T05:09:25.210Z,4.40
2019-02-14T05:11:52.837Z,8.87
2019-02-14T05:14:20.503Z,5.00
2019-02-14T05:16:48.043Z,5.57
2019-02-14T05:19:15.583Z,5.50
2019-02-14T05:21:43.856Z,4.83
2019-02-14T05:24:11.526Z,4.90
2019-02-14T05:26:39.159Z,5.07
2019-02-14T05:29:07.079Z,5.47
2019-02-14T05:31:34.649Z,7.47
2019-02-14T05:34:02.295Z,5.20
2019-02-14T05:36:29.814Z,4.60
2019-02-14T05:38:57.301Z,4.47
2019-02-14T05:41:24.891Z,5.13
2019-02-14T05:43:52.463Z,4.47
2019-02-14T05:46:20.108Z,5.43
2019-02-14T05:48:47.717Z,5.30
2019-02-14T05:51:15.511Z,5.60
2019-02-14T05:53:43.148Z,5.03
2019-02-14T05:56:10.688Z,5.77
2019-02-14T05:58:38.260Z,5.30
2019-02-14T06:01:05.799Z,6.30
2019-02-14T06:03:33.398Z,4.50
2019-02-14T06:06:01.281Z,4.53
2019-02-14T06:08:28.860Z,4.97
2019-02-14T06:10:56.439Z,4.70
2019-02-14T06:13:24.429Z,5.80
2019-02-14T06:15:51.884Z,5.20
2019-02-14T06:18:19.454Z,5.33
2019-02-14T06:20:47.142Z,6.70
2019-02-14T06:23:14.759Z,4.70
2019-02-14T06:25:42.334Z,6.53
2019-02-14T06:28:09.932Z,9.27
2019-02-14T06:30:37.530Z,5.33
2019-02-14T06:33:05.224Z,5.40
2019-02-14T06:35:32.841Z,5.00
2019-02-14T06:38:00.541Z,5.07
2019-02-14T06:40:28.103Z,21.00
2019-02-14T06:42:56.429Z,25.10
2019-02-14T06:45:23.967Z,13.63
2019-02-14T06:47:51.665Z,11.93
2019-02-14T06:50:19.499Z,12.03
2019-02-14T06:52:51.221Z,11.17
2019-02-14T06:55:19.088Z,21.47
2019-02-14T06:57:46.719Z,6.73
2019-02-14T07:00:14.543Z,7.67
2019-02-14T07:02:42.303Z,6.53
2019-02-14T07:05:10.012Z,5.77
2019-02-14T07:07:37.865Z,6.20
2019-02-14T07:10:06.343Z,7.10
2019-02-14T07:12:33.925Z,5.07
2019-02-14T07:15:01.472Z,5.83
2019-02-14T07:17:29.063Z,5.23
2019-02-14T07:20:00.300Z,5.53
2019-02-14T07:22:27.818Z,5.77
2019-02-14T07:24:55.415Z,5.33
2019-02-14T07:27:23.081Z,5.47
2019-02-14T07:29:50.638Z,5.83
2019-02-14T07:32:18.607Z,6.20
2019-02-14T07:34:46.532Z,7.20
2019-02-14T07:37:14.185Z,6.23
2019-02-14T07:39:42.220Z,7.33
2019-02-14T07:42:09.836Z,7.47
2019-02-14T07:44:37.755Z,5.53
2019-02-14T07:47:05.278Z,6.07
2019-02-14T07:49:33.760Z,6.27
2019-02-14T07:52:01.384Z,6.57
2019-02-14T07:54:29.008Z,6.70
2019-02-14T07:56:56.749Z,6.23
2019-02-14T07:59:24.968Z,8.93
2019-02-14T08:01:53.056Z,7.20
2019-02-14T08:04:21.325Z,6.63
2019-02-14T08:06:49.142Z,6.23
2019-02-14T08:09:16.924Z,6.17
2019-02-14T08:11:44.719Z,7.03
2019-02-14T08:14:12.500Z,6.43
2019-02-14T08:16:40.169Z,7.00
2019-02-14T08:19:07.995Z,7.07
2019-02-14T08:21:36.179Z,7.33
2019-02-14T08:24:04.052Z,9.90
2019-02-14T08:26:34.663Z,7.20
2019-02-14T08:29:06.389Z,10.57
2019-02-14T08:31:34.861Z,9.30
2019-02-14T08:34:03.061Z,9.40
2019-02-14T08:36:30.943Z,8.20
2019-02-14T08:39:01.068Z,6.37
2019-02-14T08:41:28.958Z,6.30
2019-02-14T08:43:56.601Z,6.90
2019-02-14T08:46:24.298Z,9.93
2019-02-14T08:48:53.226Z,7.07
2019-02-14T08:51:37.310Z,7.50
2019-02-14T08:54:05.500Z,7.43
2019-02-14T08:56:33.156Z,6.67
2019-02-14T08:59:04.212Z,7.20
2019-02-14T09:01:39.717Z,11.77
2019-02-14T09:04:12.631Z,14.17
2019-02-14T09:06:54.307Z,10.03
2019-02-14T09:09:22.434Z,10.37
2019-02-14T09:11:50.128Z,16.17
2019-02-14T09:14:18.069Z,6.30
2019-02-14T09:16:45.945Z,6.97
2019-02-14T09:19:13.836Z,7.10
2019-02-14T09:21:45.906Z,8.90
2019-02-14T09:24:13.397Z,6.97
2019-02-14T09:26:41.145Z,7.17
2019-02-14T09:29:08.606Z,6.33
2019-02-14T09:31:36.036Z,7.20
2019-02-14T09:34:03.477Z,7.30
2019-02-14T09:36:31.330Z,7.60
2019-02-14T09:38:58.742Z,6.90
2019-02-14T09:41:26.136Z,6.40
2019-02-14T09:43:53.622Z,6.97
2019-02-14T09:46:24.071Z,6.93
2019-02-14T09:48:54.385Z,7.60
2019-02-14T09:51:21.858Z,6.97
2019-02-14T09:53:49.206Z,8.20
2019-02-14T09:56:16.942Z,7.37
2019-02-14T09:58:58.881Z,7.23
2019-02-14T10:01:26.376Z,6.20
2019-02-14T10:03:53.892Z,6.87
2019-02-14T10:06:21.475Z,8.03
2019-02-14T10:09:07.018Z,6.53
2019-02-14T10:11:34.732Z,6.67
2019-02-14T10:14:03.710Z,7.90
2019-02-14T10:16:31.580Z,6.33
2019-02-14T10:18:59.032Z,7.80
2019-02-14T10:21:26.433Z,7.43
2019-02-14T10:23:53.924Z,7.33
2019-02-14T10:26:21.442Z,7.57
2019-02-14T10:28:49.132Z,7.60
2019-02-14T10:31:16.513Z,8.47
2019-02-14T10:33:43.880Z,6.83
2019-02-14T10:36:11.438Z,7.90
2019-02-14T10:38:39.268Z,6.90
2019-02-14T10:41:07.002Z,6.80
2019-02-14T10:43:34.660Z,6.43
2019-02-14T10:46:02.771Z,7.03
2019-02-14T10:48:30.268Z,6.50
2019-02-14T10:50:57.763Z,7.57
2019-02-14T10:53:25.457Z,6.03
2019-02-14T10:55:52.961Z,7.23
2019-02-14T10:58:20.286Z,7.60
2019-02-14T11:00:47.647Z,6.33
2019-02-14T11:03:15.619Z,7.07
2019-02-14T11:05:43.121Z,6.10
2019-02-14T11:08:10.476Z,8.53
2019-02-14T11:10:39.965Z,6.53
2019-02-14T11:13:07.722Z,6.77
2019-02-14T11:15:35.240Z,6.77
2019-02-14T11:18:03.119Z,5.67
2019-02-14T11:20:30.885Z,5.40
2019-02-14T11:22:58.597Z,5.27
2019-02-14T11:25:28.312Z,6.42
2019-02-14T11:27:56.107Z,4.90
2019-02-14T11:30:23.574Z,4.67
2019-02-14T11:32:51.107Z,3.93
2019-02-14T11:35:18.533Z,4.43
2019-02-14T11:37:46.070Z,3.47
2019-02-14T11:40:16.815Z,3.63
2019-02-14T11:42:44.481Z,3.47
2019-02-14T11:45:13.439Z,3.07
2019-02-14T11:47:40.970Z,3.63
2019-02-14T11:50:09.177Z,3.10
2019-02-14T11:52:36.554Z,4.20
2019-02-14T11:55:04.009Z,3.60
2019-02-14T11:57:31.355Z,4.10
2019-02-14T11:59:59.013Z,3.83
2019-02-14T12:02:26.375Z,5.97
2019-02-14T12:04:54.376Z,3.80
2019-02-14T12:07:21.734Z,3.57
2019-02-14T12:09:49.158Z,4.17
2019-02-14T12:12:16.561Z,4.13
2019-02-14T12:14:44.594Z,3.33
2019-02-14T12:17:12.369Z,5.27
2019-02-14T12:19:40.101Z,3.80
2019-02-14T12:22:07.585Z,3.90
2019-02-14T12:24:35.359Z,3.33
2019-02-14T12:27:02.878Z,3.20
2019-02-14T12:29:30.271Z,4.07
2019-02-14T12:31:57.743Z,3.43
2019-02-14T12:34:25.174Z,3.53
2019-02-14T12:36:52.681Z,3.80
2019-02-14T12:39:20.084Z,3.43
2019-02-14T12:41:47.847Z,3.65
2019-02-14T12:44:15.558Z,4.10
2019-02-14T12:46:43.232Z,4.83
2019-02-14T12:49:10.657Z,3.20
2019-02-14T12:51:38.442Z,3.60
2019-02-14T12:54:05.903Z,3.40
2019-02-14T12:56:33.376Z,4.13
2019-02-14T12:59:00.864Z,3.80
2019-02-14T13:01:28.469Z,3.07
2019-02-14T13:03:55.900Z,4.27
2019-02-14T13:06:23.396Z,3.40
2019-02-14T13:08:50.893Z,3.83
2019-02-14T13:11:18.397Z,4.17
2019-02-14T13:13:49.686Z,3.13
2019-02-14T13:16:15.125Z,4.10
2019-02-14T13:18:42.827Z,3.90
2019-02-14T13:21:10.441Z,4.63
2019-02-14T13:23:38.165Z,3.30
2019-02-14T13:26:05.608Z,3.13
2019-02-14T13:28:33.469Z,3.13
2019-02-14T13:31:00.877Z,3.40
2019-02-14T13:33:28.345Z,3.77
2019-02-14T13:35:56.076Z,3.90
2019-02-14T13:38:23.988Z,3.73
2019-02-14T13:40:51.391Z,3.23
2019-02-14T13:43:18.839Z,3.80
2019-02-14T13:45:46.301Z,3.10
2019-02-14T13:48:13.694Z,3.60
2019-02-14T13:50:41.341Z,3.20
2019-02-14T13:53:09.072Z,4.10
2019-02-14T13:55:36.433Z,3.77
2019-02-14T13:58:04.238Z,3.63
2019-02-14T14:00:31.979Z,3.50
2019-02-14T14:02:59.469Z,2.87
2019-02-14T14:05:27.068Z,3.20
2019-02-14T14:07:54.765Z,4.63
2019-02-14T14:10:22.142Z,3.77
2019-02-14T14:12:49.637Z,3.30
2019-02-14T14:15:17.104Z,3.80
2019-02-14T14:17:44.584Z,3.80
2019-02-14T14:20:11.972Z,3.87
2019-02-14T14:22:39.522Z,5.63
2019-02-14T14:25:06.959Z,4.00
2019-02-14T14:27:34.351Z,3.30
2019-02-14T14:30:01.820Z,3.50
2019-02-14T14:32:29.434Z,3.40
2019-02-14T14:34:56.863Z,3.30
2019-02-14T14:37:24.358Z,3.73
2019-02-14T14:39:51.997Z,3.40
2019-02-14T14:42:42.244Z,2.83
2019-02-14T14:45:12.138Z,3.87
2019-02-14T14:47:39.893Z,3.10
2019-02-14T14:50:07.532Z,3.37
2019-02-14T14:52:34.862Z,3.10
2019-02-14T14:55:02.466Z,3.17
2019-02-14T14:57:29.849Z,3.53
2019-02-14T14:59:57.189Z,3.33
2019-02-14T15:02:24.884Z,3.13
2019-02-14T15:04:52.294Z,3.00
2019-02-14T15:07:19.894Z,3.50
2019-02-14T15:09:47.212Z,3.27
2019-02-14T15:12:14.544Z,3.40
2019-02-14T15:14:42.635Z,3.80
2019-02-14T15:17:10.087Z,3.43
2019-02-14T15:19:37.378Z,3.17
2019-02-14T15:22:05.084Z,3.57
2019-02-14T15:24:32.396Z,3.70
2019-02-14T15:27:00.027Z,6.10
2019-02-14T15:29:27.341Z,5.90
2019-02-14T15:31:54.857Z,4.00
2019-02-14T15:34:22.271Z,3.77
2019-02-14T15:36:51.796Z,3.50
2019-02-14T15:39:19.214Z,4.20
2019-02-14T15:41:46.532Z,3.50
2019-02-14T15:44:14.538Z,3.60
2019-02-14T15:46:42.134Z,3.53
2019-02-14T15:49:09.620Z,3.20
2019-02-14T15:51:37.296Z,3.03
2019-02-14T15:54:04.617Z,3.43
2019-02-14T15:56:51.479Z,3.37
2019-02-14T15:59:20.941Z,3.67
2019-02-14T16:01:48.421Z,3.70
2019-02-14T16:04:16.092Z,4.30
2019-02-14T16:06:43.461Z,3.50
2019-02-14T16:09:12.185Z,4.33
2019-02-14T16:11:40.112Z,4.10
2019-02-14T16:14:07.797Z,3.60
2019-02-14T16:16:35.374Z,3.57
2019-02-14T16:19:02.715Z,3.70
2019-02-14T16:21:31.584Z,3.90
2019-02-14T16:23:59.027Z,3.90
2019-02-14T16:26:26.803Z,3.80
2019-02-14T16:28:54.125Z,4.33
2019-02-14T16:31:21.448Z,4.30
2019-02-14T16:33:48.782Z,3.60
2019-02-14T16:36:16.191Z,3.80
2019-02-14T16:38:43.918Z,4.40
2019-02-14T16:41:11.769Z,3.77
2019-02-14T16:43:39.110Z,4.83
2019-02-14T16:46:06.431Z,4.87
2019-02-14T16:48:34.583Z,5.37
2019-02-14T16:51:02.265Z,6.23
2019-02-14T16:53:29.614Z,5.43
2019-02-14T16:56:02.075Z,5.17
2019-02-14T16:58:26.471Z,4.40
2019-02-14T17:00:53.842Z,4.43
2019-02-14T17:03:21.200Z,4.40
2019-02-14T17:05:48.567Z,4.77
2019-02-14T17:08:15.904Z,4.93
2019-02-14T17:10:43.287Z,5.20
2019-02-14T17:13:11.147Z,4.70
2019-02-14T17:15:38.848Z,5.10
2019-02-14T17:18:06.173Z,4.80
2019-02-14T17:20:33.523Z,5.10
2019-02-14T17:23:00.840Z,5.33
2019-02-14T17:25:28.735Z,5.30
2019-02-14T17:27:56.070Z,5.33
2019-02-14T17:30:23.708Z,29.10
2019-02-14T17:32:51.146Z,43.67
2019-02-14T17:35:18.620Z,10.30
2019-02-14T17:37:46.018Z,7.77
2019-02-14T17:40:13.864Z,7.37
2019-02-14T17:42:41.336Z,7.20
2019-02-14T17:45:09.357Z,6.93
2019-02-14T17:47:37.008Z,7.87
2019-02-14T17:50:04.748Z,8.37
2019-02-14T17:52:32.160Z,8.47
2019-02-14T17:54:59.803Z,7.47
2019-02-14T17:57:27.606Z,8.20
2019-02-14T17:59:55.310Z,8.80
2019-02-14T18:05:06.724Z,7.80
2019-02-14T18:07:47.071Z,7.73
2019-02-14T18:10:19.397Z,7.00
2019-02-14T18:12:47.622Z,6.47
2019-02-14T18:15:19.108Z,7.03
2019-02-14T18:17:55.614Z,6.00
2019-02-14T18:20:24.740Z,5.80
2019-02-14T18:22:55.333Z,6.00
2019-02-14T18:25:22.864Z,6.27
2019-02-14T18:27:51.961Z,6.20
2019-02-14T18:30:27.510Z,6.20
2019-02-14T18:32:55.610Z,6.80
2019-02-14T18:35:23.207Z,5.67
2019-02-14T18:37:50.801Z,6.23
2019-02-14T18:40:18.702Z,6.13
2019-02-14T18:42:46.367Z,6.70
2019-02-14T18:45:14.000Z,6.57
2019-02-14T18:47:42.095Z,7.10
2019-02-14T18:50:10.174Z,8.53
2019-02-14T18:52:37.830Z,7.67
2019-02-14T18:55:06.221Z,7.47
2019-02-14T18:57:34.334Z,8.87
2019-02-14T19:00:02.019Z,7.83
2019-02-14T19:02:29.710Z,8.30
2019-02-14T19:04:58.041Z,8.60
2019-02-14T19:07:26.061Z,9.10
2019-02-14T19:09:54.093Z,9.97
2019-02-14T19:12:21.764Z,10.67
2019-02-14T19:14:49.516Z,16.27
2019-02-14T19:17:17.942Z,12.87
2019-02-14T19:19:45.984Z,11.07
2019-02-14T19:22:13.665Z,7.67
2019-02-14T19:24:41.613Z,7.73
2019-02-14T19:27:09.627Z,7.97
2019-02-14T19:29:37.633Z,8.00
2019-02-14T19:32:05.813Z,8.83
2019-02-14T19:34:33.858Z,7.80
2019-02-14T19:37:02.476Z,7.93
2019-02-14T19:39:31.445Z,7.77
2019-02-14T19:42:00.083Z,7.13
2019-02-14T19:44:28.133Z,7.40
2019-02-14T19:46:56.150Z,6.60
2019-02-14T19:49:24.280Z,7.47
2019-02-14T19:51:52.303Z,7.00
2019-02-14T19:54:20.370Z,6.57
2019-02-14T19:56:48.353Z,6.60
2019-02-14T19:59:16.822Z,7.10
2019-02-14T20:01:44.914Z,6.73
2019-02-14T20:04:12.549Z,7.50
2019-02-14T20:06:40.525Z,7.40
2019-02-14T20:09:08.643Z,6.73
2019-02-14T20:11:37.326Z,7.03
2019-02-14T20:14:05.546Z,7.53
2019-02-14T20:16:33.186Z,7.13
2019-02-14T20:19:00.868Z,6.37
2019-02-14T20:21:28.466Z,7.43
2019-02-14T20:23:56.129Z,7.10
2019-02-14T20:26:23.763Z,7.20
2019-02-14T20:28:51.883Z,6.80
2019-02-14T20:31:19.688Z,7.17
2019-02-14T20:33:47.791Z,7.00
2019-02-14T20:36:17.291Z,7.93
2019-02-14T20:38:45.001Z,7.07
2019-02-14T20:41:13.049Z,6.87
2019-02-14T20:43:40.796Z,7.03
2019-02-14T20:46:08.862Z,7.13
2019-02-14T20:48:36.547Z,7.00
2019-02-14T20:51:04.136Z,7.03
2019-02-14T20:53:31.834Z,7.33
2019-02-14T20:55:59.977Z,6.80
2019-02-14T20:58:27.653Z,7.13
2019-02-14T21:00:55.427Z,6.70
2019-02-14T21:03:23.103Z,6.83
2019-02-14T21:05:51.017Z,7.60
2019-02-14T21:08:19.100Z,6.87
2019-02-14T21:10:46.844Z,7.40
2019-02-14T21:13:15.189Z,6.90
2019-02-14T21:15:45.599Z,6.90
2019-02-14T21:18:13.275Z,6.47
2019-02-14T21:20:41.119Z,7.50
2019-02-14T21:23:08.808Z,7.63
2019-02-14T21:25:36.513Z,7.13
2019-02-14T21:28:04.115Z,7.50
2019-02-14T21:30:35.600Z,7.67
2019-02-14T21:33:01.853Z,7.80
2019-02-14T21:35:29.570Z,8.27
2019-02-14T21:37:57.305Z,8.27
2019-02-14T21:40:24.989Z,9.23
2019-02-14T21:42:52.606Z,8.27
2019-02-14T21:45:20.342Z,8.60
2019-02-14T21:47:48.396Z,7.80
2019-02-14T21:50:16.944Z,8.20
2019-02-14T21:52:44.619Z,8.60
2019-02-14T21:55:12.482Z,6.77
2019-02-14T21:57:40.635Z,7.33
2019-02-14T22:00:11.509Z,7.43
2019-02-14T22:02:39.223Z,7.93
2019-02-14T22:05:07.486Z,7.27
2019-02-14T22:07:35.505Z,7.77
2019-02-14T22:10:03.421Z,7.13
2019-02-14T22:12:40.046Z,7.10
2019-02-14T22:15:00.674Z,8.40
2019-02-14T22:17:28.450Z,7.70
2019-02-14T22:19:56.066Z,8.53
2019-02-14T22:22:23.662Z,8.80
2019-02-14T22:24:51.559Z,9.03
2019-02-14T22:27:19.287Z,11.78
2019-02-14T22:29:46.956Z,14.38
2019-02-14T22:32:14.516Z,8.88
2019-02-14T22:34:42.124Z,8.60
2019-02-14T22:37:09.742Z,8.40
2019-02-14T22:39:37.878Z,8.75
2019-02-14T22:42:05.503Z,8.65
2019-02-14T22:44:33.105Z,8.43
2019-02-14T22:47:00.759Z,8.53
2019-02-14T22:49:29.006Z,8.15
2019-02-14T22:51:56.903Z,8.10
2019-02-14T22:54:24.824Z,8.48
2019-02-14T22:56:52.714Z,9.23
2019-02-14T22:59:20.368Z,9.23
2019-02-14T23:01:48.199Z,10.77
2019-02-14T23:04:15.783Z,8.88
2019-02-14T23:06:44.106Z,7.97
2019-02-14T23:09:11.693Z,7.70
2019-02-14T23:11:40.009Z,9.58
2019-02-14T23:14:07.602Z,8.80
2019-02-14T23:16:35.869Z,9.18
2019-02-14T23:19:03.458Z,9.80
2019-02-14T23:21:31.103Z,9.00
2019-02-14T23:23:59.052Z,8.80
2019-02-14T23:26:26.633Z,9.08
2019-02-14T23:28:54.807Z,8.40
2019-02-14T23:31:22.453Z,8.55
2019-02-14T23:33:50.445Z,8.93
2019-02-14T23:36:18.079Z,8.25
2019-02-14T23:38:45.992Z,8.83
2019-02-14T23:41:13.651Z,8.60
2019-02-14T23:43:41.873Z,8.75
2019-02-14T23:46:09.808Z,8.73
2019-02-14T23:48:39.102Z,9.00
2019-02-14T23:51:06.720Z,9.27
2019-02-14T23:53:34.310Z,9.40
2019-02-14T23:56:01.983Z,9.40
2019-02-14T23:58:30.531Z,10.30
